Search for airport 
image banner adimage banner adimage banner ad
image banner ad

CEC5 - Fort Smith (District)

Located in , Canada

ICAO - CEC5, IATA -

Data provided by Airmate  

General information

Coordinates: N60°0'11" W111°54'34"
Elevation is 665 feet MSL.
Magnetic variation is 15.2497° East
View others Airports in Northwest Territories

Operational data

Special qualification required
Current time UTC:
Current local time:
Weather at : CYSM - Fort Smith ( 3 km )
METAR: CYSM 221700Z 14011G20KT 15SM FEW240 04/M03 A2993 RMK CI1 CI TR SLP148
TAF: TAF CYSM 221145Z 2212/2224 14012KT P6SM SKC BECMG 2215/2217 15015G25KT RMK NXT FCST BY 221800Z
View NOTAMs / SUP AIP / TFR affecting this airport [VIEW]
Communications frequencies: [VIEW]

Runways:

Airport contact information

Address: Canada

Satellite view of CEC5